Time;durP1;ratioP1;P1;durP2;ratioP2;P2;SDS_P1;SDS_P2;PMS_P1;PMS_P2;Temp;Humidity;BMP_temperature;BMP_pressure;BME280_temperature;BME280_humidity;BME280_pressure;Samples;Min_cycle;Max_cycle;Signal;HPM_P1;HPM_P2
2022/06/12 00:01:20;;;;;;;6.72;5.95;;;;;;;18.83;nan;100437.44;5053899;28;20064;-68
2022/06/12 00:03:47;;;;;;;7.82;6.68;;;;;;;18.88;nan;100426.72;5053808;28;20410;-67
2022/06/12 00:06:15;;;;;;;8.30;6.30;;;;;;;18.89;nan;100426.44;5035505;28;20048;-68
2022/06/12 00:08:41;;;;;;;8.70;6.03;;;;;;;18.84;nan;100423.81;5053653;28;20075;-68
2022/06/12 00:11:08;;;;;;;9.23;6.03;;;;;;;18.89;nan;100429.09;5053241;28;20492;-68
2022/06/12 00:13:41;;;;;;;10.45;6.25;;;;;;;18.88;nan;100440.84;5034934;28;20074;-68
2022/06/12 00:16:09;;;;;;;7.65;6.05;;;;;;;18.82;nan;100441.97;5053538;28;20083;-67
2022/06/12 00:18:35;;;;;;;8.40;5.75;;;;;;;18.83;nan;100445.44;5053124;28;20071;-68
2022/06/12 00:21:33;;;;;;;8.88;6.18;;;;;;;18.71;nan;100430.53;5053528;28;20036;-67
2022/06/12 00:23:54;;;;;;;10.55;6.40;;;;;;;18.65;nan;100437.00;5049896;28;20035;-67
2022/06/12 00:26:32;;;;;;;8.38;6.43;;;;;;;18.59;nan;100435.44;5053185;28;20033;-67
2022/06/12 00:29:00;;;;;;;12.50;5.90;;;;;;;18.50;nan;100429.88;5053169;28;20083;-68
2022/06/12 00:31:28;;;;;;;7.93;6.70;;;;;;;18.43;nan;100426.72;5053362;28;20483;-68
2022/06/12 00:33:53;;;;;;;9.88;6.88;;;;;;;18.25;nan;100430.84;5053017;28;20040;-68
2022/06/12 00:36:19;;;;;;;9.63;6.28;;;;;;;18.18;nan;100414.34;5052290;28;20033;-68
2022/06/12 00:38:45;;;;;;;9.38;6.82;;;;;;;18.20;nan;100414.09;5053340;28;20037;-68
2022/06/12 00:41:10;;;;;;;9.43;6.40;;;;;;;18.24;nan;100426.59;5052908;28;20039;-68
2022/06/12 00:43:37;;;;;;;9.10;6.80;;;;;;;18.18;nan;100421.56;5053038;28;20037;-67
2022/06/12 00:46:03;;;;;;;9.73;6.20;;;;;;;18.12;nan;100430.63;5034246;28;20033;-68
2022/06/12 00:48:35;;;;;;;8.77;6.18;;;;;;;17.98;nan;100419.78;5053083;28;20036;-66
2022/06/12 00:51:07;;;;;;;7.15;6.28;;;;;;;17.99;nan;100422.19;5051960;28;20064;-68
2022/06/12 00:53:37;;;;;;;8.88;6.43;;;;;;;17.91;nan;100411.28;5052895;28;20033;-67
2022/06/12 00:56:06;;;;;;;8.75;6.47;;;;;;;17.90;nan;100423.00;5052197;28;20379;-68
2022/06/12 00:58:35;;;;;;;;;;;;;;;17.89;nan;100419.56;5053329;28;20033;-68
2022/06/12 01:01:03;;;;;;;7.57;5.70;;;;;;;17.82;nan;100411.84;5034721;28;19912;-67
2022/06/12 01:03:28;;;;;;;19.83;6.80;;;;;;;17.76;nan;100410.25;5045310;28;20033;-68
2022/06/12 01:08:40;;;;;;;11.75;7.40;;;;;;;17.86;nan;100441.41;5033208;28;20116;-68
2022/06/12 01:11:10;;;;;;;7.93;6.53;;;;;;;17.63;nan;100400.97;5014265;28;20099;-67
2022/06/12 01:13:40;;;;;;;10.10;6.88;;;;;;;17.55;nan;100392.75;5032883;28;20025;-68
2022/06/12 01:16:18;;;;;;;12.18;7.30;;;;;;;17.57;nan;100404.72;5032580;28;20041;-67
2022/06/12 01:18:49;;;;;;;10.43;7.28;;;;;;;17.59;nan;100407.91;5035774;28;20025;-67
2022/06/12 01:21:30;;;;;;;9.80;7.53;;;;;;;17.62;nan;100415.38;5052540;28;20052;-67
2022/06/12 01:24:29;;;;;;;11.63;7.70;;;;;;;17.59;nan;100409.78;5052357;28;20121;-68
2022/06/12 01:26:57;;;;;;;10.25;7.95;;;;;;;17.59;nan;100404.44;5052583;28;20037;-67
2022/06/12 01:29:28;;;;;;;9.68;7.55;;;;;;;17.43;nan;100385.88;5033727;28;20029;-67
2022/06/12 01:32:03;;;;;;;9.55;7.18;;;;;;;17.57;nan;100404.72;5052478;28;20028;-67
2022/06/12 01:34:59;;;;;;;10.35;7.70;;;;;;;17.52;nan;100398.63;5052440;28;20099;-68
2022/06/12 01:37:37;;;;;;;13.10;7.45;;;;;;;17.50;nan;100408.72;5024222;28;20032;-68
2022/06/12 01:40:20;;;;;;;11.57;8.00;;;;;;;17.41;nan;100409.28;5052521;28;20060;-67
2022/06/12 01:42:52;;;;;;;11.27;7.35;;;;;;;17.42;nan;100410.88;5034265;28;20029;-68
2022/06/12 01:45:32;;;;;;;8.55;7.65;;;;;;;17.41;nan;100411.16;5052438;28;20033;-68
2022/06/12 01:48:04;;;;;;;8.95;7.13;;;;;;;17.40;nan;100414.88;5052444;28;20039;-68
2022/06/12 01:50:41;;;;;;;10.50;7.15;;;;;;;17.38;nan;100414.34;5052228;28;20061;-67
2022/06/12 01:53:24;;;;;;;9.23;7.35;;;;;;;17.17;nan;100392.31;5051036;28;20033;-67
2022/06/12 01:56:10;;;;;;;11.07;7.30;;;;;;;17.22;nan;100400.28;5052287;28;20663;-67
2022/06/12 01:58:46;;;;;;;8.93;6.68;;;;;;;17.21;nan;100399.50;5056358;28;20037;-68
2022/06/12 02:01:16;;;;;;;15.07;7.85;;;;;;;17.17;nan;100395.78;5056169;28;20033;-67
2022/06/12 02:03:54;;;;;;;10.20;6.97;;;;;;;17.09;nan;100380.34;5038319;28;20391;-67
2022/06/12 02:06:38;;;;;;;8.88;7.32;;;;;;;17.13;nan;100393.91;5056020;28;20060;-67
2022/06/12 02:09:10;;;;;;;9.27;7.00;;;;;;;17.09;nan;100390.97;5055303;28;20051;-68
2022/06/12 02:14:49;;;;;;;9.55;7.55;;;;;;;16.95;nan;100384.59;5056265;28;20033;-68
2022/06/12 02:17:22;;;;;;;8.98;7.30;;;;;;;16.88;nan;100389.41;5055883;28;20025;-67
2022/06/12 02:19:51;;;;;;;11.75;7.18;;;;;;;16.95;nan;100403.22;5055911;28;20074;-67
2022/06/12 02:22:22;;;;;;;10.65;7.88;;;;;;;16.94;nan;100421.06;5037329;28;20127;-67
2022/06/12 02:25:12;;;;;;;13.98;8.50;;;;;;;16.89;nan;100410.41;5055450;28;20120;-67
2022/06/12 02:27:51;;;;;;;14.63;8.35;;;;;;;16.84;nan;100402.44;5037794;28;20461;-68
2022/06/12 02:30:23;;;;;;;13.32;8.55;;;;;;;16.89;nan;100404.31;5055699;28;20068;-67
2022/06/12 02:32:56;;;;;;;10.52;8.07;;;;;;;16.80;nan;100404.81;5055769;28;20055;-68
2022/06/12 02:35:31;;;;;;;10.60;8.05;;;;;;;16.82;nan;100414.41;5055654;28;20032;-67
2022/06/12 02:38:02;;;;;;;10.68;8.15;;;;;;;16.82;nan;100419.75;5054921;28;20076;-68
2022/06/12 02:40:53;;;;;;;14.18;8.60;;;;;;;16.80;nan;100417.34;5055353;28;20048;-68
2022/06/12 02:43:25;;;;;;;10.55;7.95;;;;;;;16.75;nan;100402.13;5055484;28;20502;-67
2022/06/12 02:45:57;;;;;;;11.70;8.32;;;;;;;16.80;nan;100407.50;5055391;28;20048;-67
2022/06/12 02:48:23;;;;;;;10.73;7.82;;;;;;;16.75;nan;100407.47;5055144;28;20033;-67
2022/06/12 02:51:12;;;;;;;11.60;8.57;;;;;;;16.77;nan;100407.22;5037211;28;20036;-67
2022/06/12 02:53:46;;;;;;;12.57;8.68;;;;;;;16.82;nan;100412.56;5055102;28;20037;-67
2022/06/12 02:56:52;;;;;;;9.88;8.02;;;;;;;16.85;nan;100421.84;5055018;28;20070;-67
2022/06/12 02:59:35;;;;;;;10.05;7.70;;;;;;;16.82;nan;100428.50;5043524;28;20041;-67
2022/06/12 03:02:16;;;;;;;11.80;7.80;;;;;;;16.79;nan;100429.84;5055019;28;20114;-67
2022/06/12 03:04:57;;;;;;;12.02;8.27;;;;;;;16.79;nan;100431.72;5036869;28;20037;-67
2022/06/12 03:07:23;;;;;;;11.13;8.85;;;;;;;16.65;nan;100422.63;5054772;28;20123;-67
2022/06/12 03:09:49;;;;;;;12.35;8.40;;;;;;;16.74;nan;100432.47;5036106;28;20115;-67
2022/06/12 03:12:15;;;;;;;10.05;8.05;;;;;;;16.70;nan;100431.41;5054314;28;20168;-66
2022/06/12 03:14:41;;;;;;;12.60;8.25;;;;;;;16.71;nan;100435.66;5054283;28;20124;-68
2022/06/12 03:17:07;;;;;;;11.80;8.70;;;;;;;16.70;nan;100428.72;5054830;28;20033;-67
2022/06/12 03:19:42;;;;;;;10.30;8.20;;;;;;;16.75;nan;100426.06;5054607;28;20040;-67
2022/06/12 03:22:16;;;;;;;12.57;8.73;;;;;;;16.78;nan;100440.69;5036512;28;20028;-67
2022/06/12 03:24:48;;;;;;;10.00;7.85;;;;;;;16.72;nan;100425.81;5054479;28;20443;-67
2022/06/12 03:27:32;;;;;;;10.68;7.93;;;;;;;16.81;nan;100445.53;5054156;28;20143;-67
2022/06/12 03:30:03;;;;;;;14.55;8.70;;;;;;;16.82;nan;100447.13;5036359;28;20033;-68
2022/06/12 03:32:36;;;;;;;15.35;8.18;;;;;;;16.85;nan;100457.22;5053923;28;20086;-67
2022/06/12 03:35:35;;;;;;;10.55;8.20;;;;;;;16.86;nan;100450.06;5036316;28;20090;-67
2022/06/12 03:38:10;;;;;;;9.10;8.15;;;;;;;16.88;nan;100450.56;5054315;28;20040;-68
2022/06/12 03:40:35;;;;;;;10.18;7.88;;;;;;;16.88;nan;100448.75;5054000;28;20479;-67
2022/06/12 03:43:13;;;;;;;10.45;8.00;;;;;;;16.87;nan;100447.13;5053838;28;20044;-67
2022/06/12 03:45:58;;;;;;;11.60;7.97;;;;;;;16.94;nan;100447.66;5054343;28;20033;-67
2022/06/12 03:48:40;;;;;;;10.02;7.85;;;;;;;16.97;nan;100459.63;5054106;28;20032;-67
2022/06/12 03:51:08;;;;;;;8.98;7.65;;;;;;;17.03;nan;100455.13;5054230;28;20036;-68
2022/06/12 03:53:47;;;;;;;8.93;7.57;;;;;;;16.80;nan;100415.47;5035753;28;20115;-68
2022/06/12 03:59:25;;;;;;;10.82;7.65;;;;;;;17.07;nan;100450.84;5030157;28;20075;-68
2022/06/12 04:01:51;;;;;;;12.35;7.63;;;;;;;17.09;nan;100449.50;5054067;28;20514;-68
2022/06/12 04:04:20;;;;;;;9.57;7.82;;;;;;;17.17;nan;100459.63;5053651;28;20064;-68
2022/06/12 04:06:47;;;;;;;16.25;8.55;;;;;;;17.16;nan;100452.69;5053862;28;20095;-67
2022/06/12 04:09:20;;;;;;;9.13;7.88;;;;;;;17.24;nan;100459.38;5035810;28;20060;-67
2022/06/12 04:12:02;;;;;;;12.13;7.60;;;;;;;17.25;nan;100458.28;5052921;28;20434;-67
2022/06/12 04:14:37;;;;;;;11.10;7.85;;;;;;;17.32;nan;100463.34;5053661;28;20379;-67
2022/06/12 04:17:04;;;;;;;13.95;7.32;;;;;;;17.37;nan;100460.69;5035559;28;20036;-68
2022/06/12 04:19:58;;;;;;;9.52;7.75;;;;;;;17.40;nan;100460.94;5053413;28;20043;-68
2022/06/12 04:22:19;;;;;;;10.60;8.07;;;;;;;17.48;nan;100458.78;5053014;28;20064;-68
2022/06/12 04:24:49;;;;;;;10.48;7.47;;;;;;;17.47;nan;100454.53;5053339;28;20045;-67
2022/06/12 04:27:22;;;;;;;10.55;7.60;;;;;;;17.58;nan;100469.44;5051083;28;20033;-67
2022/06/12 04:29:55;;;;;;;11.35;8.00;;;;;;;17.59;nan;100466.47;5053489;28;20032;-68
2022/06/12 04:32:22;;;;;;;8.20;7.10;;;;;;;17.68;nan;100466.75;5035194;28;20037;-68
2022/06/12 04:34:48;;;;;;;13.60;7.40;;;;;;;17.79;nan;100465.66;5053413;28;20071;-68
2022/06/12 04:37:22;;;;;;;8.80;7.10;;;;;;;17.87;nan;100471.53;5053346;28;20036;-68
2022/06/12 04:39:49;;;;;;;8.23;7.00;;;;;;;17.93;nan;100465.09;5053285;28;20051;-67
2022/06/12 04:42:17;;;;;;;8.43;7.03;;;;;;;17.97;nan;100480.25;5053117;28;20024;-68
2022/06/12 04:44:43;;;;;;;8.93;7.05;;;;;;;17.98;nan;100479.22;5034891;28;20107;-67
2022/06/12 04:47:12;;;;;;;7.72;6.53;;;;;;;18.11;nan;100485.03;5053113;28;20471;-68
2022/06/12 04:49:38;;;;;;;11.68;7.20;;;;;;;18.10;nan;100476.25;5035086;28;20421;-67
2022/06/12 04:52:07;;;;;;;13.95;6.72;;;;;;;18.23;nan;100490.84;5053134;28;20029;-67
2022/06/12 04:54:33;;;;;;;12.53;6.63;;;;;;;18.30;nan;100490.53;5051086;28;20040;-67
2022/06/12 04:56:59;;;;;;;9.60;6.78;;;;;;;18.39;nan;100491.53;5052910;28;20728;-68
2022/06/12 04:59:26;;;;;;;8.68;6.93;;;;;;;18.49;nan;100494.16;5052601;28;20044;-67
2022/06/12 05:01:52;;;;;;;10.93;7.00;;;;;;;18.50;nan;100482.41;5052955;28;20029;-68
2022/06/12 05:04:19;;;;;;;7.03;6.32;;;;;;;18.58;nan;100489.84;5031219;28;20033;-67
2022/06/12 05:06:45;;;;;;;7.90;6.88;;;;;;;18.63;nan;100489.03;5032846;28;20033;-68
2022/06/12 05:09:13;;;;;;;11.30;6.65;;;;;;;18.65;nan;100487.69;5032887;28;20025;-68
2022/06/12 05:11:40;;;;;;;9.52;6.75;;;;;;;18.69;nan;100480.69;5014700;28;20099;-67
2022/06/12 05:14:05;;;;;;;8.85;7.05;;;;;;;18.69;nan;100482.56;5032734;28;20049;-68
2022/06/12 05:16:38;;;;;;;8.20;6.68;;;;;;;18.76;nan;100483.09;5032741;28;20040;-67
2022/06/12 05:19:06;;;;;;;8.48;6.53;;;;;;;18.78;nan;100491.63;5038380;28;20115;-67
2022/06/12 05:21:32;;;;;;;8.37;6.50;;;;;;;18.88;nan;100494.22;5052667;28;20548;-67
2022/06/12 05:24:00;;;;;;;11.02;6.15;;;;;;;18.99;nan;100486.94;5051313;28;20040;-67
2022/06/12 05:26:26;;;;;;;6.97;6.28;;;;;;;18.99;nan;100488.81;5034241;28;20033;-68
2022/06/12 05:28:53;;;;;;;8.02;6.60;;;;;;;19.08;nan;100484.44;5052032;28;20060;-67
2022/06/12 05:31:19;;;;;;;10.27;6.78;;;;;;;19.17;nan;100490.00;5050609;28;20028;-68
2022/06/12 05:33:45;;;;;;;7.75;6.03;;;;;;;19.29;nan;100493.09;5050907;28;20515;-68
2022/06/12 05:36:13;;;;;;;9.95;6.57;;;;;;;19.39;nan;100481.50;5052410;28;20032;-68
2022/06/12 05:38:39;;;;;;;10.60;6.50;;;;;;;19.39;nan;100484.97;5052398;28;20108;-68
2022/06/12 05:41:04;;;;;;;7.68;6.40;;;;;;;19.48;nan;100498.53;5052338;28;20037;-67
2022/06/12 05:43:30;;;;;;;8.20;6.40;;;;;;;19.55;nan;100507.00;5052371;28;20390;-67
2022/06/12 05:45:56;;;;;;;9.80;6.30;;;;;;;19.62;nan;100501.34;5052358;28;20443;-67
2022/06/12 05:48:22;;;;;;;6.90;6.20;;;;;;;19.71;nan;100500.47;5052082;28;20025;-67
2022/06/12 05:50:54;;;;;;;11.05;6.32;;;;;;;19.79;nan;100456.28;5052425;28;20039;-68
2022/06/12 05:53:21;;;;;;;8.93;6.47;;;;;;;19.85;nan;100452.50;5052114;28;20025;-68
2022/06/12 05:55:47;;;;;;;8.75;6.68;;;;;;;19.93;nan;100438.47;5052351;28;20083;-67
2022/06/12 05:58:14;;;;;;;9.98;5.95;;;;;;;19.96;nan;100453.94;5052117;28;20029;-67
2022/06/12 06:00:40;;;;;;;10.80;5.85;;;;;;;19.97;nan;100444.84;5050715;28;20495;-68
2022/06/12 06:03:06;;;;;;;11.43;6.40;;;;;;;20.04;nan;100449.03;5051745;28;20060;-68
2022/06/12 06:05:33;;;;;;;6.82;6.05;;;;;;;20.11;nan;100412.06;5034476;28;20032;-68
2022/06/12 06:07:59;;;;;;;7.10;5.80;;;;;;;20.15;nan;100461.19;5052207;28;20028;-68
2022/06/12 06:10:26;;;;;;;9.60;6.05;;;;;;;20.24;nan;100464.03;5051822;28;20029;-68
2022/06/12 06:12:52;;;;;;;7.07;6.07;;;;;;;20.34;nan;100447.84;5051491;28;20132;-68
2022/06/12 06:15:18;;;;;;;7.57;5.82;;;;;;;20.40;nan;100508.22;5051672;28;20039;-68
2022/06/12 06:17:43;;;;;;;8.60;6.45;;;;;;;20.46;nan;100424.13;5052184;28;20033;-68
2022/06/12 06:20:14;;;;;;;6.93;5.78;;;;;;;20.54;nan;100466.28;5051884;28;20120;-68
2022/06/12 06:22:39;;;;;;;7.20;5.75;;;;;;;;;;5052195;28;20029;-68
2022/06/12 06:25:05;;;;;;;9.50;5.97;;;;;;;20.64;nan;100461.88;5051880;28;20128;-68
2022/06/12 06:27:30;;;;;;;8.00;6.30;;;;;;;20.73;nan;100452.13;5051648;28;20045;-68
2022/06/12 06:29:55;;;;;;;12.50;6.47;;;;;;;20.79;nan;100418.84;5051937;28;20037;-68
2022/06/12 06:32:21;;;;;;;7.20;5.65;;;;;;;20.90;nan;100427.50;5051854;28;20029;-69
2022/06/12 06:34:46;;;;;;;6.80;5.88;;;;;;;20.88;nan;100451.06;5051929;28;20111;-68
2022/06/12 06:37:12;;;;;;;8.18;5.93;;;;;;;21.01;nan;100469.06;5051950;28;20163;-68
2022/06/12 06:39:38;;;;;;;6.90;5.80;;;;;;;21.14;nan;100460.31;5051685;28;20029;-68
2022/06/12 06:42:05;;;;;;;11.77;6.82;;;;;;;21.23;nan;100452.38;5034240;28;20033;-68
2022/06/12 06:47:15;;;;;;;12.20;6.55;;;;;;;21.40;nan;100462.53;5055438;28;20138;-67
2022/06/12 06:49:40;;;;;;;7.18;6.35;;;;;;;;;;5055292;28;20033;-68
2022/06/12 06:52:06;;;;;;;8.07;6.25;;;;;;;21.56;nan;100455.03;5055403;28;20033;-68
2022/06/12 06:54:31;;;;;;;7.10;5.88;;;;;;;21.69;nan;100461.47;5054904;28;20029;-68
2022/06/12 06:56:57;;;;;;;13.30;6.28;;;;;;;21.76;nan;100468.03;5055185;28;20056;-68
2022/06/12 06:59:22;;;;;;;6.22;5.57;;;;;;;21.74;nan;100462.19;5055225;28;20033;-68
2022/06/12 07:01:48;;;;;;;7.75;5.72;;;;;;;21.86;nan;100475.06;5055196;28;20106;-68
2022/06/12 07:04:14;;;;;;;7.38;5.10;;;;;;;22.11;nan;100530.09;5041121;28;20040;-68
2022/06/12 07:06:40;;;;;;;9.77;5.43;;;;;;;22.13;nan;100517.19;5035155;28;20029;-67
2022/06/12 07:09:05;;;;;;;12.68;5.75;;;;;;;22.20;nan;100520.28;5035067;28;20414;-68
2022/06/12 07:11:32;;;;;;;6.30;5.38;;;;;;;22.30;nan;100527.31;5034799;28;20041;-68
2022/06/12 07:13:58;;;;;;;9.32;5.40;;;;;;;22.35;nan;100515.69;5035093;28;20039;-68
2022/06/12 07:16:25;;;;;;;8.50;5.50;;;;;;;22.46;nan;100525.13;5034749;28;20031;-68
2022/06/12 07:18:51;;;;;;;5.60;5.10;;;;;;;22.45;nan;100520.84;5038437;28;20513;-66
2022/06/12 07:21:17;;;;;;;5.68;4.72;;;;;;;22.54;nan;100527.06;5036507;28;20041;-66
2022/06/12 07:23:42;;;;;;;5.68;4.93;;;;;;;22.64;nan;100521.47;5054268;28;20475;-67
2022/06/12 07:26:18;;;;;;;6.97;4.68;;;;;;;22.88;nan;100533.84;5036423;28;20040;-66
2022/06/12 07:28:43;;;;;;;6.22;4.88;;;;;;;22.97;nan;100534.69;5036980;28;20036;-66
2022/06/12 07:31:09;;;;;;;5.40;4.47;;;;;;;22.96;nan;100529.63;5052617;28;20463;-66
2022/06/12 07:33:37;;;;;;;7.25;4.88;;;;;;;23.09;nan;100542.25;5054554;28;20368;-66
2022/06/12 07:36:05;;;;;;;6.38;4.72;;;;;;;23.09;nan;100534.19;5054251;28;20029;-66
2022/06/12 07:38:30;;;;;;;5.80;4.68;;;;;;;23.21;nan;100544.38;5036027;28;20041;-67
2022/06/12 07:40:59;;;;;;;5.97;4.57;;;;;;;23.21;nan;100534.41;5054382;28;20059;-66
2022/06/12 07:43:27;;;;;;;8.70;4.90;;;;;;;23.22;nan;100545.94;5054296;28;20120;-67
2022/06/12 07:45:53;;;;;;;5.78;4.72;;;;;;;23.26;nan;100544.25;5054087;28;20036;-67
2022/06/12 07:48:21;;;;;;;6.00;4.80;;;;;;;23.31;nan;100538.75;5054065;28;20360;-67
2022/06/12 07:50:48;;;;;;;6.45;4.53;;;;;;;23.32;nan;100524.19;5053988;28;20033;-66
2022/06/12 07:53:15;;;;;;;8.30;4.80;;;;;;;23.54;nan;100540.31;5053912;28;20372;-67
2022/06/12 07:55:41;;;;;;;5.38;4.55;;;;;;;23.54;nan;100534.94;5053669;28;20562;-67
2022/06/12 07:58:07;;;;;;;7.00;4.30;;;;;;;23.63;nan;100545.72;5053924;28;20029;-66
2022/06/12 08:00:33;;;;;;;9.20;4.30;;;;;;;23.73;nan;100541.97;5053777;28;20490;-66
2022/06/12 08:02:58;;;;;;;4.93;4.22;;;;;;;23.83;nan;100547.09;5032449;28;20042;-67
2022/06/12 08:05:25;;;;;;;5.85;4.38;;;;;;;23.90;nan;100544.75;5033999;28;20033;-67
2022/06/12 08:07:50;;;;;;;7.55;4.38;;;;;;;23.83;nan;100520.22;5033921;28;20033;-67
2022/06/12 08:10:16;;;;;;;5.70;4.20;;;;;;;23.98;nan;100541.31;5033655;28;20063;-66
2022/06/12 08:12:44;;;;;;;5.05;4.55;;;;;;;24.04;nan;100541.16;5033360;28;20140;-67
2022/06/12 08:15:16;;;;;;;5.75;4.25;;;;;;;24.10;nan;100538.00;5033768;28;20040;-67
2022/06/12 08:17:42;;;;;;;7.00;4.43;;;;;;;24.17;nan;100543.72;5032230;28;20041;-66
2022/06/12 08:20:28;;;;;;;4.65;3.72;;;;;;;24.24;nan;100537.91;5048114;28;20029;-66
2022/06/12 08:23:04;;;;;;;11.60;5.80;;;;;;;24.27;nan;100536.47;5053604;28;20035;-66
2022/06/12 08:25:32;;;;;;;9.95;4.05;;;;;;;24.41;nan;100537.91;5053517;28;20139;-66
2022/06/12 08:27:58;;;;;;;6.38;4.05;;;;;;;24.46;nan;100542.41;5053442;28;20048;-67
2022/06/12 08:30:24;;;;;;;5.40;4.10;;;;;;;24.38;nan;100511.66;5053290;28;20033;-66
2022/06/12 08:32:52;;;;;;;6.38;4.07;;;;;;;24.57;nan;100541.00;5053378;28;20051;-67
2022/06/12 08:35:23;;;;;;;6.35;3.88;;;;;;;24.60;nan;100548.44;5035200;28;20033;-66
2022/06/12 08:37:49;;;;;;;4.00;3.58;;;;;;;24.57;nan;100529.44;5035413;28;20036;-66
2022/06/12 08:40:20;;;;;;;5.82;3.70;;;;;;;24.64;nan;100535.16;5035280;28;20036;-66
2022/06/12 08:42:57;;;;;;;7.03;3.70;;;;;;;24.67;nan;100539.09;5053147;28;20452;-67
2022/06/12 08:45:29;;;;;;;5.82;3.90;;;;;;;24.79;nan;100552.72;5052678;28;20086;-67
2022/06/12 08:48:13;;;;;;;4.53;3.88;;;;;;;24.88;nan;100556.22;5053085;28;20032;-66
2022/06/12 08:50:51;;;;;;;5.70;3.75;;;;;;;24.94;nan;100554.13;5035185;28;20111;-67
2022/06/12 08:53:45;;;;;;;3.88;3.40;;;;;;;24.99;nan;100552.06;5052938;28;20040;-66
2022/06/12 08:56:48;;;;;;;7.03;3.30;;;;;;;25.06;nan;100562.38;5052861;28;20029;-66
2022/06/12 08:59:29;;;;;;;4.15;3.08;;;;;;;25.12;nan;100555.72;4971796;28;20066;-66
2022/06/12 09:01:55;;;;;;;4.18;3.45;;;;;;;25.13;nan;100538.44;4971843;28;20089;-66
2022/06/12 09:04:25;;;;;;;5.05;3.35;;;;;;;25.19;nan;100550.66;4971599;28;20030;-66
2022/06/12 09:06:57;;;;;;;3.88;3.40;;;;;;;25.25;nan;100549.38;4954974;28;20117;-67
2022/06/12 09:10:03;;;;;;;3.88;3.22;;;;;;;25.32;nan;100554.28;4971667;28;20038;-67
2022/06/12 09:12:44;;;;;;;4.47;3.40;;;;;;;25.37;nan;100554.09;4957978;28;20055;-67
2022/06/12 09:15:27;;;;;;;4.03;3.15;;;;;;;25.48;nan;100554.56;4971830;28;20030;-66
2022/06/12 09:18:05;;;;;;;5.43;2.72;;;;;;;25.49;nan;100537.25;4955741;28;20441;-67
2022/06/12 09:20:46;;;;;;;4.00;2.50;;;;;;;25.60;nan;100543.91;4971337;28;20049;-66
2022/06/12 09:23:30;;;;;;;5.82;2.80;;;;;;;25.74;nan;100546.41;4971423;28;20058;-67
2022/06/12 09:25:58;;;;;;;3.03;2.50;;;;;;;25.84;nan;100547.94;4971483;28;20038;-67
2022/06/12 09:28:24;;;;;;;;;;;;;;;25.81;nan;100545.88;4971339;28;20488;-67
2022/06/12 09:30:55;;;;;;;3.77;2.63;;;;;;;25.81;nan;100548.56;4971182;28;19913;-67
2022/06/12 09:33:42;;;;;;;5.07;2.90;;;;;;;25.85;nan;100542.19;5017518;28;20037;-66
2022/06/12 09:36:19;;;;;;;2.75;2.47;;;;;;;25.84;nan;100537.94;5052298;28;20036;-67
2022/06/12 09:39:06;;;;;;;3.60;2.60;;;;;;;25.84;nan;100537.16;5052430;28;20179;-67
2022/06/12 09:41:45;;;;;;;3.45;2.70;;;;;;;25.91;nan;100542.88;5052004;28;20036;-66
2022/06/12 09:44:13;;;;;;;3.10;2.80;;;;;;;25.99;nan;100541.22;5052358;28;20498;-66
2022/06/12 09:47:03;;;;;;;3.35;2.60;;;;;;;26.02;nan;100529.78;5052543;28;20041;-66
2022/06/12 09:50:01;;;;;;;4.18;2.88;;;;;;;26.00;nan;100534.72;5052362;28;20037;-66
2022/06/12 09:52:34;;;;;;;3.42;2.95;;;;;;;26.06;nan;100539.59;5051874;28;20415;-66
2022/06/12 09:55:20;;;;;;;5.40;2.75;;;;;;;26.10;nan;100535.13;5034048;28;20037;-66
2022/06/12 09:57:53;;;;;;;6.38;3.65;;;;;;;26.24;nan;100534.09;5052107;28;20099;-66
2022/06/12 10:00:21;;;;;;;6.20;2.70;;;;;;;26.27;nan;100526.16;5052187;28;20037;-66
2022/06/12 10:03:11;;;;;;;3.60;2.60;;;;;;;26.31;nan;100520.88;5052248;28;20120;-66
2022/06/12 10:05:45;;;;;;;7.60;3.30;;;;;;;26.44;nan;100522.53;5052340;28;20120;-66
2022/06/12 10:08:25;;;;;;;3.22;2.50;;;;;;;26.47;nan;100527.28;5052032;28;20036;-66
2022/06/12 10:11:05;;;;;;;4.07;2.88;;;;;;;26.52;nan;100531.69;5033696;28;20033;-67
2022/06/12 10:13:39;;;;;;;4.35;3.13;;;;;;;26.62;nan;100525.13;5052242;28;20037;-66
2022/06/12 10:16:32;;;;;;;6.20;2.95;;;;;;;26.60;nan;100511.16;5052152;28;20029;-67
2022/06/12 10:19:24;;;;;;;3.35;2.72;;;;;;;26.60;nan;100511.97;5055216;28;20032;-66
2022/06/12 10:21:56;;;;;;;4.40;2.75;;;;;;;26.64;nan;100515.56;5055834;28;20036;-66
2022/06/12 10:24:22;;;;;;;4.65;2.65;;;;;;;26.72;nan;100501.22;5055592;28;20119;-66
2022/06/12 10:27:04;;;;;;;3.55;2.67;;;;;;;26.79;nan;100502.56;5055325;28;20037;-67
2022/06/12 10:29:42;;;;;;;5.65;2.92;;;;;;;26.67;nan;100482.50;5055712;28;20079;-66
2022/06/12 10:32:13;;;;;;;3.50;3.20;;;;;;;26.82;nan;100497.31;5055676;28;20037;-66
2022/06/12 10:34:39;;;;;;;3.95;2.53;;;;;;;26.85;nan;100491.22;5055745;28;20039;-67
2022/06/12 10:37:17;;;;;;;9.45;2.70;;;;;;;26.83;nan;100496.19;5055469;28;20032;-67
2022/06/12 10:39:43;;;;;;;4.80;2.80;;;;;;;26.87;nan;100496.31;5055501;28;20033;-67
2022/06/12 10:42:31;;;;;;;5.90;2.67;;;;;;;26.88;nan;100489.78;5055318;28;20043;-66
2022/06/12 10:44:59;;;;;;;3.85;3.00;;;;;;;26.85;nan;100491.22;5055561;28;20029;-67
2022/06/12 10:47:32;;;;;;;4.45;3.00;;;;;;;26.92;nan;100491.47;5037110;28;20041;-67
2022/06/12 10:50:15;;;;;;;3.65;2.70;;;;;;;26.90;nan;100487.53;5055270;28;20021;-67
2022/06/12 10:53:10;;;;;;;3.10;2.80;;;;;;;26.97;nan;100481.59;5054387;28;20490;-66
2022/06/12 10:55:48;;;;;;;2.88;2.53;;;;;;;26.97;nan;100471.56;5036329;28;20568;-66
2022/06/12 10:58:32;;;;;;;2.50;2.30;;;;;;;27.04;nan;100476.44;5054904;28;20090;-66
2022/06/12 11:01:05;;;;;;;6.15;3.05;;;;;;;27.14;nan;100474.09;5054701;28;20040;-67
2022/06/12 11:03:51;;;;;;;3.33;2.55;;;;;;;27.13;nan;100477.91;5055123;28;20071;-66
2022/06/12 11:06:28;;;;;;;4.15;3.05;;;;;;;27.14;nan;100465.97;5053520;28;20554;-67
2022/06/12 11:09:12;;;;;;;3.58;2.63;;;;;;;27.21;nan;100470.09;5054095;28;20582;-66
2022/06/12 11:11:55;;;;;;;6.90;2.95;;;;;;;27.23;nan;100468.63;5054765;28;20110;-66
2022/06/12 11:14:47;;;;;;;5.95;2.72;;;;;;;27.30;nan;100458.03;5054782;28;20032;-66
2022/06/12 11:17:20;;;;;;;3.28;2.90;;;;;;;27.42;nan;100457.25;5054783;28;20490;-67
2022/06/12 11:19:49;;;;;;;6.22;2.78;;;;;;;27.49;nan;100456.72;5036569;28;20052;-67
2022/06/12 11:22:40;;;;;;;2.83;2.55;;;;;;;27.47;nan;100454.34;5054781;28;20548;-66
2022/06/12 11:25:26;;;;;;;3.10;2.63;;;;;;;27.49;nan;100451.28;5054658;28;20475;-68
2022/06/12 11:28:10;;;;;;;5.32;2.88;;;;;;;27.52;nan;100451.41;5054664;28;20043;-67
2022/06/12 11:30:56;;;;;;;5.50;2.92;;;;;;;27.57;nan;100434.16;5053657;28;20040;-67
2022/06/12 11:33:31;;;;;;;3.92;2.63;;;;;;;27.64;nan;100431.66;5036611;28;20432;-67
2022/06/12 11:36:02;;;;;;;3.67;3.10;;;;;;;27.64;nan;100437.06;5054619;28;20032;-67
2022/06/12 11:38:36;;;;;;;4.13;3.00;;;;;;;27.61;nan;100435.06;5054274;28;20059;-66
2022/06/12 11:41:07;;;;;;;2.85;2.50;;;;;;;27.72;nan;100422.63;5036218;28;20483;-66
2022/06/12 11:43:51;;;;;;;3.22;2.83;;;;;;;27.79;nan;100430.97;5054327;28;20142;-67
2022/06/12 11:46:33;;;;;;;2.70;2.50;;;;;;;27.83;nan;100423.00;5035662;28;20049;-66
2022/06/12 11:49:39;;;;;;;4.28;2.78;;;;;;;27.84;nan;100419.16;5035833;28;20159;-66
2022/06/12 11:52:08;;;;;;;4.25;2.88;;;;;;;27.95;nan;100427.59;4973125;28;20798;-67
2022/06/12 11:54:37;;;;;;;5.25;2.72;;;;;;;27.94;nan;100423.31;4972770;28;20038;-66
2022/06/12 11:57:10;;;;;;;3.33;2.75;;;;;;;28.02;nan;100427.81;4972948;28;20035;-66
2022/06/12 11:59:41;;;;;;;3.13;2.80;;;;;;;28.04;nan;100425.56;4972869;28;20043;-66
2022/06/12 12:02:22;;;;;;;5.80;2.67;;;;;;;28.07;nan;100424.88;4973007;28;20085;-67
2022/06/12 12:04:59;;;;;;;4.28;2.50;;;;;;;28.09;nan;100419.91;4972024;28;20038;-66
2022/06/12 12:07:52;;;;;;;3.65;2.50;;;;;;;28.15;nan;100413.09;4956592;28;20086;-67
2022/06/12 12:10:42;;;;;;;3.60;2.65;;;;;;;28.24;nan;100409.47;4972526;28;20121;-66
2022/06/12 12:13:15;;;;;;;3.75;2.83;;;;;;;28.26;nan;100412.63;4972852;28;20513;-66
2022/06/12 12:15:58;;;;;;;2.45;2.25;;;;;;;28.23;nan;100397.88;4972785;28;20129;-67
2022/06/12 12:18:40;;;;;;;2.63;2.40;;;;;;;28.27;nan;100406.84;4972325;28;20070;-67
2022/06/12 12:21:13;;;;;;;2.97;2.30;;;;;;;28.26;nan;100396.38;4972224;28;20038;-67